Time;durP1;ratioP1;P1;durP2;ratioP2;P2;SDS_P1;SDS_P2;PMS_P1;PMS_P2;Temp;Humidity;BMP_temperature;BMP_pressure;BME280_temperature;BME280_humidity;BME280_pressure;Samples;Min_cycle;Max_cycle;Signal;HPM_P1;HPM_P2
2021/10/10 00:00:59;;;;;;;27.42;13.77;;;5.90;99.90;;;;;;5030311;28;20057;-71
2021/10/10 00:03:26;;;;;;;26.80;13.83;;;5.90;99.90;;;;;;5029270;28;20127;-71
2021/10/10 00:05:53;;;;;;;28.83;13.50;;;5.80;99.90;;;;;;5027925;28;20089;-71
2021/10/10 00:08:20;;;;;;;24.42;12.95;;;5.80;99.90;;;;;;5029006;28;21348;-71
2021/10/10 00:10:47;;;;;;;29.20;15.20;;;5.60;99.90;;;;;;5029508;28;20540;-71
2021/10/10 00:13:14;;;;;;;27.77;14.67;;;5.60;99.90;;;;;;5028181;28;20103;-71
2021/10/10 00:15:41;;;;;;;28.37;14.40;;;5.50;99.90;;;;;;5029523;28;20452;-70
2021/10/10 00:18:10;;;;;;;33.13;15.10;;;5.60;99.90;;;;;;5029241;28;20520;-71
2021/10/10 00:20:37;;;;;;;27.63;13.83;;;5.50;99.90;;;;;;5029028;28;20077;-71
2021/10/10 00:23:04;;;;;;;24.70;13.33;;;5.50;99.90;;;;;;5028925;28;20159;-71
2021/10/10 00:25:31;;;;;;;25.97;13.83;;;5.60;99.90;;;;;;5027685;28;20071;-69
2021/10/10 00:27:59;;;;;;;24.63;13.03;;;5.50;99.90;;;;;;5028688;28;20520;-71
2021/10/10 00:30:26;;;;;;;26.87;13.80;;;5.50;99.90;;;;;;5029079;28;20052;-69
2021/10/10 00:32:53;;;;;;;27.73;14.83;;;5.50;99.90;;;;;;5028191;28;20049;-70
2021/10/10 00:35:21;;;;;;;24.25;13.55;;;5.50;99.90;;;;;;5027155;28;20509;-69
2021/10/10 00:37:48;;;;;;;26.47;13.93;;;5.50;99.90;;;;;;5028622;28;20106;-69
2021/10/10 00:40:15;;;;;;;30.13;14.43;;;5.50;99.90;;;;;;5028797;28;20049;-70
2021/10/10 00:42:42;;;;;;;26.43;13.60;;;5.50;99.90;;;;;;5029515;28;20048;-70
2021/10/10 00:45:10;;;;;;;30.93;14.57;;;5.50;99.90;;;;;;5028109;28;20513;-70
2021/10/10 00:47:37;;;;;;;26.33;13.67;;;5.40;99.90;;;;;;5028607;28;20049;-70
2021/10/10 00:50:05;;;;;;;25.83;14.13;;;5.40;99.90;;;;;;5029159;28;20048;-71
2021/10/10 00:52:37;;;;;;;26.37;14.07;;;5.30;99.90;;;;;;5028264;28;20627;-71
2021/10/10 00:55:05;;;;;;;33.67;15.70;;;5.30;99.90;;;;;;5029447;28;20489;-71
2021/10/10 00:57:32;;;;;;;24.73;14.07;;;5.30;99.90;;;;;;5027957;28;20057;-70
2021/10/10 01:00:00;;;;;;;26.57;13.50;;;5.40;99.90;;;;;;5029725;28;20099;-70
2021/10/10 01:02:27;;;;;;;26.77;14.43;;;5.30;99.90;;;;;;5027723;28;20045;-69
2021/10/10 01:04:55;;;;;;;31.00;15.77;;;5.20;99.90;;;;;;5028612;28;20052;-70
2021/10/10 01:07:22;;;;;;;28.93;16.03;;;5.10;99.90;;;;;;5029322;28;20469;-70
2021/10/10 01:09:51;;;;;;;31.23;15.67;;;5.20;99.90;;;;;;5029946;28;20464;-70
2021/10/10 01:12:18;;;;;;;26.53;14.30;;;4.90;99.90;;;;;;5029595;28;20110;-70
2021/10/10 01:14:48;;;;;;;27.10;14.70;;;5.00;99.90;;;;;;5029049;28;20052;-70
2021/10/10 01:17:15;;;;;;;26.30;14.70;;;5.10;99.90;;;;;;5028239;28;20103;-70
2021/10/10 01:19:45;;;;;;;24.73;14.17;;;5.00;99.90;;;;;;5029068;28;20060;-70
2021/10/10 01:22:13;;;;;;;31.90;15.40;;;5.10;99.90;;;;;;5029234;28;20533;-70
2021/10/10 01:24:40;;;;;;;28.90;14.83;;;5.00;99.90;;;;;;5029462;28;20098;-70
2021/10/10 01:27:07;;;;;;;33.53;16.70;;;4.90;99.90;;;;;;5028066;28;20643;-69
2021/10/10 01:29:34;;;;;;;25.87;13.70;;;5.00;99.90;;;;;;5029085;28;20040;-70
2021/10/10 01:32:01;;;;;;;25.53;14.00;;;5.00;99.90;;;;;;5028798;28;20132;-70
2021/10/10 01:34:28;;;;;;;32.57;14.77;;;5.00;99.90;;;;;;5028327;28;20052;-70
2021/10/10 01:36:55;;;;;;;24.13;13.70;;;5.00;99.90;;;;;;5027976;28;20114;-71
2021/10/10 01:39:23;;;;;;;31.17;15.23;;;4.90;99.90;;;;;;5028767;28;20048;-70
2021/10/10 01:41:50;;;;;;;27.57;15.27;;;4.90;99.90;;;;;;5028920;28;20474;-71
2021/10/10 01:44:18;;;;;;;28.77;14.73;;;4.80;99.90;;;;;;5028597;28;20045;-70
2021/10/10 01:46:45;;;;;;;27.33;14.67;;;4.70;99.90;;;;;;5027678;28;20474;-71
2021/10/10 01:49:13;;;;;;;26.53;13.80;;;4.60;99.90;;;;;;5028865;28;20049;-70
2021/10/10 01:51:41;;;;;;;30.63;13.77;;;4.70;99.90;;;;;;5028575;28;20103;-71
2021/10/10 01:54:08;;;;;;;25.73;13.40;;;4.60;99.90;;;;;;5028753;28;20568;-70
2021/10/10 01:56:37;;;;;;;24.73;13.27;;;4.60;99.90;;;;;;5028277;28;20072;-70
2021/10/10 01:59:04;;;;;;;28.10;13.57;;;4.60;99.90;;;;;;5028038;28;20686;-70
2021/10/10 02:01:31;;;;;;;24.57;13.00;;;4.70;99.90;;;;;;5029651;28;20583;-70
2021/10/10 02:03:58;;;;;;;28.77;13.50;;;4.60;99.90;;;;;;5029293;28;20497;-71
2021/10/10 02:06:25;;;;;;;28.63;13.00;;;4.50;99.90;;;;;;5028230;28;20127;-71
2021/10/10 02:08:52;;;;;;;25.23;13.47;;;4.40;99.90;;;;;;5029137;28;20064;-70
2021/10/10 02:11:20;;;;;;;27.43;13.30;;;4.50;99.90;;;;;;5028941;28;20106;-70
2021/10/10 02:13:48;;;;;;;26.70;13.80;;;4.50;99.90;;;;;;5029079;28;20496;-70
2021/10/10 02:16:15;;;;;;;26.97;13.50;;;4.50;99.90;;;;;;5028271;28;20386;-70
2021/10/10 02:18:42;;;;;;;22.70;13.00;;;4.40;99.90;;;;;;5029422;28;21227;-70
2021/10/10 02:21:09;;;;;;;27.00;13.10;;;4.40;99.90;;;;;;5028448;28;20084;-70
2021/10/10 02:23:36;;;;;;;27.23;13.30;;;4.30;99.90;;;;;;5028529;28;20091;-70
2021/10/10 02:26:03;;;;;;;25.60;14.73;;;4.20;99.90;;;;;;5027839;28;20076;-70
2021/10/10 02:28:30;;;;;;;27.80;14.13;;;4.20;99.90;;;;;;5030785;28;20052;-70
2021/10/10 02:30:58;;;;;;;27.03;13.77;;;4.30;99.90;;;;;;5033168;28;20231;-70
2021/10/10 02:33:25;;;;;;;28.20;14.33;;;4.20;99.90;;;;;;5033170;28;20468;-72
2021/10/10 02:35:52;;;;;;;24.57;13.73;;;4.10;99.90;;;;;;5032300;28;20516;-70
2021/10/10 02:38:19;;;;;;;24.37;13.10;;;4.10;99.90;;;;;;5033146;28;20045;-70
2021/10/10 02:40:46;;;;;;;22.90;12.80;;;4.10;99.90;;;;;;5031792;28;20501;-70
2021/10/10 02:43:13;;;;;;;24.67;12.97;;;4.00;99.90;;;;;;5032261;28;20487;-71
2021/10/10 02:45:40;;;;;;;23.97;13.10;;;3.90;99.90;;;;;;5030041;28;20520;-70
2021/10/10 02:48:09;;;;;;;25.73;12.47;;;4.00;99.90;;;;;;5033012;28;20076;-70
2021/10/10 02:50:36;;;;;;;23.93;12.57;;;3.90;99.90;;;;;;5033423;28;20467;-70
2021/10/10 02:53:03;;;;;;;24.17;13.20;;;3.90;99.90;;;;;;5033151;28;20041;-72
2021/10/10 02:55:30;;;;;;;25.50;12.73;;;4.00;99.90;;;;;;5031284;28;20115;-70
2021/10/10 02:57:57;;;;;;;23.20;11.83;;;4.00;99.90;;;;;;5033255;28;20324;-70
2021/10/10 03:00:24;;;;;;;23.53;13.00;;;3.90;99.90;;;;;;5032172;28;20084;-70
2021/10/10 03:02:52;;;;;;;26.67;14.37;;;3.80;99.90;;;;;;5032346;28;20086;-71
2021/10/10 03:05:20;;;;;;;23.13;12.87;;;3.80;99.90;;;;;;5031166;28;20052;-69
2021/10/10 03:07:47;;;;;;;23.03;12.50;;;3.80;99.90;;;;;;5032519;28;20091;-70
2021/10/10 03:10:14;;;;;;;24.73;12.57;;;3.80;99.90;;;;;;5032644;28;20560;-70
2021/10/10 03:12:41;;;;;;;26.60;13.20;;;3.80;99.90;;;;;;5032001;28;20386;-70
2021/10/10 03:15:08;;;;;;;21.13;11.90;;;3.70;99.90;;;;;;5032612;28;20052;-70
2021/10/10 03:17:35;;;;;;;26.73;12.80;;;3.60;99.90;;;;;;5031961;28;20049;-70
2021/10/10 03:20:03;;;;;;;28.47;12.67;;;3.50;99.90;;;;;;5032029;28;20369;-70
2021/10/10 03:22:31;;;;;;;24.23;12.40;;;3.60;99.90;;;;;;5032510;28;20075;-70
2021/10/10 03:24:58;;;;;;;22.93;12.63;;;3.60;99.90;;;;;;5033005;28;20095;-70
2021/10/10 03:27:26;;;;;;;25.57;12.80;;;3.70;99.90;;;;;;5031962;28;20506;-70
2021/10/10 03:29:54;;;;;;;24.47;12.30;;;3.60;99.90;;;;;;5031979;28;20055;-70
2021/10/10 03:32:21;;;;;;;26.57;13.97;;;3.50;99.90;;;;;;5031280;28;21171;-70
2021/10/10 03:34:48;;;;;;;25.07;13.07;;;3.50;99.90;;;;;;5032287;28;20559;-70
2021/10/10 03:37:15;;;;;;;25.97;13.00;;;3.40;99.90;;;;;;5031689;28;20928;-70
2021/10/10 03:39:44;;;;;;;29.63;14.30;;;3.40;99.90;;;;;;5032063;28;20044;-70
2021/10/10 03:42:10;;;;;;;24.63;13.07;;;3.50;99.90;;;;;;5031773;28;20493;-70
2021/10/10 03:44:38;;;;;;;25.33;12.77;;;3.50;99.90;;;;;;5032396;28;20049;-70
2021/10/10 03:47:05;;;;;;;27.00;13.17;;;3.50;99.90;;;;;;5031987;28;20496;-71
2021/10/10 03:49:33;;;;;;;24.03;13.53;;;3.40;99.90;;;;;;5031727;28;20116;-73
2021/10/10 03:52:01;;;;;;;27.30;14.43;;;3.40;99.90;;;;;;5032192;28;20353;-71
2021/10/10 03:57:10;;;;;;;27.50;13.37;;;3.40;99.90;;;;;;4993524;28;20352;-69
2021/10/10 03:59:37;;;;;;;31.57;14.00;;;3.50;99.90;;;;;;5032145;28;20049;-69
2021/10/10 04:02:06;;;;;;;23.93;13.43;;;3.40;99.90;;;;;;5031642;28;20049;-70
2021/10/10 04:04:35;;;;;;;21.70;12.30;;;3.40;99.90;;;;;;5031789;28;20449;-70
2021/10/10 04:07:02;;;;;;;26.17;13.13;;;3.40;99.90;;;;;;5036507;28;20049;-70
2021/10/10 04:09:29;;;;;;;26.30;12.17;;;3.30;99.90;;;;;;5035480;28;20082;-70
2021/10/10 04:11:56;;;;;;;25.17;12.67;;;3.20;99.90;;;;;;5035348;28;20080;-70
2021/10/10 04:14:25;;;;;;;29.50;12.60;;;3.20;99.90;;;;;;5034560;28;20049;-70
2021/10/10 04:16:52;;;;;;;26.30;13.07;;;3.30;99.90;;;;;;5035057;28;20132;-70
2021/10/10 04:19:19;;;;;;;25.17;13.37;;;3.20;99.90;;;;;;5035404;28;20041;-70
2021/10/10 04:21:46;;;;;;;25.27;12.87;;;3.10;99.90;;;;;;5035126;28;20052;-70
2021/10/10 04:24:13;;;;;;;24.93;13.73;;;3.20;99.90;;;;;;5034645;28;20345;-70
2021/10/10 04:26:40;;;;;;;25.63;11.77;;;3.20;99.90;;;;;;5034565;28;20049;-70
2021/10/10 04:29:07;;;;;;;25.07;12.53;;;3.20;99.90;;;;;;5034568;28;20076;-70
2021/10/10 04:31:35;;;;;;;26.50;12.97;;;3.20;99.90;;;;;;5034213;28;20052;-71
2021/10/10 04:34:02;;;;;;;24.97;12.17;;;3.10;99.90;;;;;;5034906;28;20061;-70
2021/10/10 04:36:29;;;;;;;25.77;12.50;;;3.10;99.90;;;;;;5034298;28;20040;-71
2021/10/10 04:38:56;;;;;;;22.40;12.47;;;3.00;99.90;;;;;;5035243;28;20463;-70
2021/10/10 04:41:24;;;;;;;21.87;11.23;;;3.10;99.90;;;;;;5034394;28;20049;-70
2021/10/10 04:43:51;;;;;;;21.37;11.87;;;3.00;99.90;;;;;;5034827;28;20037;-71
2021/10/10 04:46:18;;;;;;;20.27;11.73;;;3.00;99.90;;;;;;5033098;28;20471;-71
2021/10/10 04:48:46;;;;;;;25.20;12.67;;;3.00;99.90;;;;;;5034734;28;20123;-70
2021/10/10 04:51:13;;;;;;;24.10;11.87;;;3.00;99.90;;;;;;5033627;28;20571;-71
2021/10/10 04:53:40;;;;;;;23.77;12.13;;;3.00;99.90;;;;;;5034780;28;20049;-71
2021/10/10 04:56:07;;;;;;;23.27;11.60;;;2.90;99.90;;;;;;5032809;28;20049;-72
2021/10/10 04:58:34;;;;;;;22.30;11.20;;;2.80;99.90;;;;;;5034721;28;20068;-72
2021/10/10 05:01:01;;;;;;;20.87;11.60;;;2.90;99.90;;;;;;5035660;28;20321;-72
2021/10/10 05:03:28;;;;;;;22.80;11.73;;;2.80;99.90;;;;;;5034568;28;20071;-72
2021/10/10 05:05:57;;;;;;;22.37;11.60;;;2.80;99.90;;;;;;5033824;28;20468;-69
2021/10/10 05:08:24;;;;;;;24.40;11.47;;;2.80;99.90;;;;;;5035043;28;20055;-70
2021/10/10 05:10:50;;;;;;;22.20;10.67;;;2.90;99.90;;;;;;5033677;28;20052;-70
2021/10/10 05:13:18;;;;;;;21.27;11.60;;;2.80;99.90;;;;;;5034067;28;20091;-70
2021/10/10 05:15:45;;;;;;;23.53;11.10;;;2.70;99.90;;;;;;5034303;28;20061;-70
2021/10/10 05:18:12;;;;;;;21.20;11.63;;;2.80;99.90;;;;;;5034403;28;20044;-70
2021/10/10 05:20:39;;;;;;;21.50;11.37;;;2.80;99.90;;;;;;5033943;28;20053;-70
2021/10/10 05:23:10;;;;;;;22.93;11.17;;;2.80;99.90;;;;;;5034058;28;20579;-71
2021/10/10 05:25:37;;;;;;;23.53;12.10;;;2.70;99.90;;;;;;5032766;28;20084;-70
2021/10/10 05:28:05;;;;;;;22.07;11.30;;;2.70;99.90;;;;;;5034005;28;20053;-70
2021/10/10 05:30:32;;;;;;;19.87;10.73;;;2.70;99.90;;;;;;5034499;28;20057;-69
2021/10/10 05:33:00;;;;;;;21.60;10.23;;;2.60;99.90;;;;;;5033490;28;20071;-70
2021/10/10 05:35:27;;;;;;;23.50;11.50;;;2.60;99.90;;;;;;5033908;28;20102;-70
2021/10/10 05:37:55;;;;;;;21.50;11.27;;;2.60;99.90;;;;;;5034083;28;20049;-70
2021/10/10 05:40:23;;;;;;;22.87;11.30;;;2.60;99.90;;;;;;5033930;28;20127;-70
2021/10/10 05:42:50;;;;;;;22.50;11.30;;;2.50;99.90;;;;;;5033981;28;20049;-70
2021/10/10 05:45:17;;;;;;;20.83;10.73;;;2.50;99.90;;;;;;5033707;28;20044;-70
2021/10/10 05:47:44;;;;;;;22.30;11.73;;;2.60;99.90;;;;;;5034148;28;20041;-70
2021/10/10 05:50:11;;;;;;;19.77;11.10;;;2.60;99.90;;;;;;5033967;28;20045;-70
2021/10/10 05:52:39;;;;;;;20.23;11.77;;;2.70;99.90;;;;;;5033672;28;20110;-72
2021/10/10 05:55:09;;;;;;;20.77;10.20;;;2.80;99.90;;;;;;5034436;28;20053;-71
2021/10/10 05:57:44;;;;;;;20.77;10.83;;;2.80;99.90;;;;;;5034624;28;20505;-70
2021/10/10 06:00:13;;;;;;;21.97;10.63;;;2.80;99.90;;;;;;5034387;28;20048;-71
2021/10/10 06:02:41;;;;;;;19.30;10.20;;;2.70;99.90;;;;;;5035112;28;20413;-70
2021/10/10 06:05:10;;;;;;;24.43;10.77;;;2.70;99.90;;;;;;5038370;28;20049;-70
2021/10/10 06:07:38;;;;;;;21.27;10.67;;;2.70;99.90;;;;;;5038245;28;20052;-70
2021/10/10 06:10:05;;;;;;;19.30;10.60;;;2.80;99.90;;;;;;5038166;28;20048;-70
2021/10/10 06:12:34;;;;;;;23.03;11.00;;;2.80;99.90;;;;;;5038146;28;20820;-69
2021/10/10 06:15:04;;;;;;;18.77;9.23;;;2.90;99.90;;;;;;5037832;28;20072;-70
2021/10/10 06:17:31;;;;;;;23.60;10.63;;;2.80;99.90;;;;;;5038045;28;20049;-70
2021/10/10 06:19:59;;;;;;;20.70;11.07;;;2.90;99.90;;;;;;5038679;28;20091;-70
2021/10/10 06:22:26;;;;;;;27.20;12.10;;;2.90;99.90;;;;;;5036963;28;20498;-70
2021/10/10 06:24:53;;;;;;;22.90;11.33;;;3.00;99.90;;;;;;5037778;28;20085;-70
2021/10/10 06:27:20;;;;;;;19.23;10.43;;;3.10;99.90;;;;;;5036818;28;20602;-70
2021/10/10 06:29:48;;;;;;;24.40;10.93;;;3.00;99.90;;;;;;5037076;28;20505;-70
2021/10/10 06:32:16;;;;;;;21.87;10.63;;;2.90;99.90;;;;;;5037269;28;20053;-70
2021/10/10 06:34:43;;;;;;;21.00;11.03;;;2.90;99.90;;;;;;5037871;28;20052;-71
2021/10/10 06:37:10;;;;;;;20.67;11.57;;;3.00;99.90;;;;;;5037441;28;20527;-71
2021/10/10 06:39:37;;;;;;;17.83;10.83;;;3.10;99.90;;;;;;5038618;28;20057;-71
2021/10/10 06:42:05;;;;;;;21.00;11.27;;;3.20;99.90;;;;;;5037663;28;20388;-71
2021/10/10 06:44:32;;;;;;;21.30;11.40;;;3.30;99.90;;;;;;5036427;28;20509;-71
2021/10/10 06:46:59;;;;;;;23.77;11.20;;;3.40;99.90;;;;;;5036654;28;20107;-70
2021/10/10 06:49:28;;;;;;;22.57;11.53;;;3.40;99.90;;;;;;5037699;28;20049;-70
2021/10/10 06:51:55;;;;;;;21.60;11.30;;;3.50;99.90;;;;;;5037783;28;20045;-71
2021/10/10 06:54:22;;;;;;;22.20;11.17;;;3.60;99.90;;;;;;5037683;28;20120;-71
2021/10/10 06:56:49;;;;;;;21.57;12.20;;;3.60;99.90;;;;;;5037229;28;20125;-71
2021/10/10 06:59:16;;;;;;;26.73;11.43;;;3.70;99.90;;;;;;5037157;28;20111;-70
2021/10/10 07:01:44;;;;;;;21.07;10.67;;;3.70;99.90;;;;;;5037131;28;20041;-70
2021/10/10 07:04:11;;;;;;;20.13;10.57;;;3.80;99.90;;;;;;5038146;28;20435;-70
2021/10/10 07:06:39;;;;;;;20.47;10.20;;;3.90;99.90;;;;;;5036454;28;20053;-71
2021/10/10 07:09:06;;;;;;;18.87;9.73;;;3.90;99.90;;;;;;5037555;28;20045;-70
2021/10/10 07:11:33;;;;;;;20.97;10.50;;;4.00;99.90;;;;;;5036782;28;20073;-71
2021/10/10 07:14:00;;;;;;;19.47;10.57;;;4.10;99.90;;;;;;5036180;28;20333;-71
2021/10/10 07:16:28;;;;;;;18.87;9.77;;;4.10;99.90;;;;;;5035803;28;20151;-69
2021/10/10 07:18:57;;;;;;;24.43;10.33;;;4.20;99.90;;;;;;5036635;28;20049;-70
2021/10/10 07:21:40;;;;;;;22.07;10.60;;;4.20;99.90;;;;;;5035908;28;20095;-71
2021/10/10 07:27:04;;;;;;;23.08;10.15;;;4.50;99.90;;;;;;4943881;28;20050;-70
2021/10/10 07:29:31;;;;;;;21.10;9.93;;;4.70;99.90;;;;;;5012622;28;20048;-71
2021/10/10 07:31:59;;;;;;;19.80;9.93;;;4.80;99.90;;;;;;5035336;28;20057;-71
2021/10/10 07:34:25;;;;;;;19.47;9.30;;;4.80;99.90;;;;;;5034425;28;20102;-71
2021/10/10 07:36:52;;;;;;;19.33;9.83;;;4.80;99.90;;;;;;5031502;28;20052;-70
2021/10/10 07:39:21;;;;;;;18.97;9.40;;;4.90;99.90;;;;;;5032464;28;20422;-69
2021/10/10 07:41:49;;;;;;;18.33;8.97;;;5.00;99.90;;;;;;5032132;28;20084;-70
2021/10/10 07:44:16;;;;;;;19.60;9.07;;;5.10;99.90;;;;;;5035645;28;20164;-70
2021/10/10 07:46:44;;;;;;;16.67;9.10;;;5.20;99.90;;;;;;5033969;28;20127;-71
2021/10/10 07:49:11;;;;;;;19.17;9.67;;;5.20;99.90;;;;;;5030880;28;20409;-70
2021/10/10 07:51:39;;;;;;;16.47;8.87;;;5.30;99.90;;;;;;5031417;28;20068;-71
2021/10/10 07:54:06;;;;;;;18.80;9.40;;;5.50;99.90;;;;;;5031142;28;20064;-70
2021/10/10 07:56:36;;;;;;;18.57;9.30;;;5.70;99.90;;;;;;5028528;28;20041;-71
2021/10/10 07:59:03;;;;;;;18.93;9.23;;;7.00;99.90;;;;;;5030180;28;20099;-71
2021/10/10 08:01:30;;;;;;;20.60;8.70;;;8.40;99.90;;;;;;5030033;28;20491;-70
2021/10/10 08:03:57;;;;;;;15.88;9.13;;;8.60;99.90;;;;;;5030355;28;20120;-72
2021/10/10 08:06:24;;;;;;;16.50;8.27;;;7.70;99.90;;;;;;5028652;28;20471;-71
2021/10/10 08:08:51;;;;;;;16.85;8.15;;;7.40;99.90;;;;;;5027588;28;20135;-71
2021/10/10 08:11:18;;;;;;;16.33;8.23;;;7.30;99.90;;;;;;5030058;28;20041;-70
2021/10/10 08:13:46;;;;;;;15.05;8.32;;;7.40;99.90;;;;;;5030228;28;20509;-71
2021/10/10 08:16:13;;;;;;;18.13;8.55;;;7.40;99.90;;;;;;5033116;28;20081;-71
2021/10/10 08:18:40;;;;;;;16.30;7.88;;;7.80;99.90;;;;;;5032646;28;20080;-69
2021/10/10 08:21:07;;;;;;;14.23;7.80;;;8.10;99.90;;;;;;5033005;28;20443;-69
2021/10/10 08:23:34;;;;;;;16.48;8.65;;;8.90;99.90;;;;;;5032680;28;20564;-69
2021/10/10 08:26:01;;;;;;;15.57;8.65;;;13.40;99.90;;;;;;5032317;28;20452;-70
2021/10/10 08:28:28;;;;;;;15.20;8.45;;;15.60;99.00;;;;;;5032460;28;20474;-69
2021/10/10 08:30:56;;;;;;;16.90;8.65;;;17.30;96.40;;;;;;5032464;28;20049;-70
2021/10/10 08:33:24;;;;;;;14.98;8.23;;;18.50;94.40;;;;;;5033029;28;20045;-70
2021/10/10 08:35:51;;;;;;;15.98;8.05;;;19.50;92.00;;;;;;5030607;28;20119;-71
2021/10/10 08:38:18;;;;;;;13.05;7.72;;;20.30;91.00;;;;;;5029645;28;20076;-70
2021/10/10 08:40:47;;;;;;;12.90;8.05;;;20.50;86.60;;;;;;5032464;28;20138;-70
2021/10/10 08:43:18;;;;;;;16.13;7.43;;;20.70;86.00;;;;;;5032644;28;20099;-70
2021/10/10 08:45:47;;;;;;;14.70;8.25;;;19.40;86.60;;;;;;5031827;28;20060;-71
2021/10/10 08:48:18;;;;;;;16.40;8.18;;;19.70;85.50;;;;;;5032398;28;20072;-71
2021/10/10 08:50:46;;;;;;;15.43;8.63;;;21.10;83.50;;;;;;5031523;28;20086;-70
2021/10/10 08:53:18;;;;;;;15.82;9.27;;;21.00;84.30;;;;;;5031049;28;20587;-69
2021/10/10 08:55:45;;;;;;;16.65;8.75;;;20.40;81.60;;;;;;5031521;28;20264;-69
2021/10/10 08:58:17;;;;;;;13.25;8.73;;;19.60;79.80;;;;;;5032080;28;20045;-70
2021/10/10 09:00:48;;;;;;;14.93;9.48;;;20.80;82.20;;;;;;5031926;28;20052;-69
2021/10/10 09:03:17;;;;;;;16.13;8.95;;;21.60;81.30;;;;;;5031733;28;20052;-69
2021/10/10 09:05:44;;;;;;;20.60;9.10;;;22.50;79.20;;;;;;5031074;28;20126;-70
2021/10/10 09:08:11;;;;;;;13.98;9.20;;;22.60;78.40;;;;;;5032063;28;20532;-69
2021/10/10 09:10:38;;;;;;;12.98;8.68;;;22.60;78.70;;;;;;5030887;28;20142;-70
2021/10/10 09:13:07;;;;;;;13.73;9.10;;;22.60;78.90;;;;;;5032173;28;20081;-70
2021/10/10 09:15:35;;;;;;;13.88;8.77;;;22.40;77.80;;;;;;5031056;28;20131;-69
2021/10/10 09:18:04;;;;;;;14.65;8.63;;;21.70;77.40;;;;;;5031016;28;20498;-70
2021/10/10 09:20:35;;;;;;;13.73;8.52;;;21.40;77.40;;;;;;5030279;28;20126;-70
2021/10/10 09:23:04;;;;;;;12.15;8.07;;;22.80;78.10;;;;;;5030995;28;20096;-71
2021/10/10 09:25:31;;;;;;;13.70;9.00;;;23.10;76.60;;;;;;5027981;28;20607;-71
2021/10/10 09:28:04;;;;;;;14.38;8.20;;;23.50;76.00;;;;;;5028756;28;20379;-71
2021/10/10 09:30:47;;;;;;;13.90;8.35;;;23.70;75.20;;;;;;5027873;28;20072;-70
2021/10/10 09:33:15;;;;;;;15.27;8.68;;;23.00;74.00;;;;;;5027364;28;20072;-70
2021/10/10 09:35:48;;;;;;;13.82;8.65;;;22.70;73.90;;;;;;5027870;28;20401;-71
2021/10/10 09:38:20;;;;;;;16.50;9.10;;;23.30;73.10;;;;;;5027549;28;20543;-71
2021/10/10 09:40:54;;;;;;;12.32;9.13;;;23.80;72.60;;;;;;5027043;28;20615;-70
2021/10/10 09:43:21;;;;;;;15.18;8.90;;;22.80;73.50;;;;;;5026403;28;20056;-71
2021/10/10 09:45:54;;;;;;;12.82;8.98;;;23.40;72.70;;;;;;5027147;28;20110;-70
2021/10/10 09:48:30;;;;;;;14.38;9.40;;;23.70;74.30;;;;;;5026675;28;20053;-70
2021/10/10 09:50:59;;;;;;;15.65;8.80;;;23.90;74.70;;;;;;5025371;28;20095;-71
2021/10/10 09:53:31;;;;;;;15.07;8.65;;;23.60;73.90;;;;;;5025455;28;20128;-71
2021/10/10 09:55:59;;;;;;;16.92;8.95;;;22.50;72.10;;;;;;5025769;28;21012;-71
2021/10/10 09:58:35;;;;;;;13.68;8.63;;;24.10;73.00;;;;;;5026579;28;20049;-71
2021/10/10 10:01:13;;;;;;;11.65;8.20;;;24.40;73.90;;;;;;5027145;28;20052;-71
2021/10/10 10:03:58;;;;;;;13.98;9.23;;;25.10;73.00;;;;;;5028317;28;21086;-71
2021/10/10 10:06:28;;;;;;;12.40;8.02;;;24.50;71.30;;;;;;5027605;28;20048;-72
2021/10/10 10:08:55;;;;;;;14.45;8.48;;;25.80;71.90;;;;;;5027196;28;20059;-71
2021/10/10 10:11:22;;;;;;;15.13;9.30;;;26.40;70.10;;;;;;5026514;28;20076;-70
2021/10/10 10:13:51;;;;;;;13.60;8.50;;;26.40;68.60;;;;;;5028248;28;20513;-70
2021/10/10 10:16:19;;;;;;;13.52;8.55;;;25.90;69.30;;;;;;5026378;28;20060;-69
2021/10/10 10:18:46;;;;;;;15.20;8.55;;;25.90;68.60;;;;;;5028204;28;20052;-71
2021/10/10 10:21:14;;;;;;;14.15;8.30;;;25.80;67.90;;;;;;5026792;28;20080;-70
2021/10/10 10:23:45;;;;;;;14.40;8.88;;;25.80;68.00;;;;;;5026320;28;20498;-71
2021/10/10 10:26:13;;;;;;;14.27;8.05;;;25.20;70.00;;;;;;5026147;28;20041;-71
2021/10/10 10:28:40;;;;;;;14.57;8.13;;;25.50;69.80;;;;;;5027298;28;20449;-71
2021/10/10 10:31:08;;;;;;;13.82;8.23;;;27.80;67.60;;;;;;5027641;28;20584;-70
2021/10/10 10:33:35;;;;;;;10.77;7.20;;;28.60;67.40;;;;;;5030772;28;20071;-69
2021/10/10 10:36:02;;;;;;;13.07;8.27;;;27.90;66.70;;;;;;5030443;28;20372;-69
2021/10/10 10:38:49;;;;;;;12.38;7.80;;;27.70;68.20;;;;;;5031159;28;20166;-70
2021/10/10 10:41:47;;;;;;;11.93;7.55;;;29.40;66.20;;;;;;5030838;28;20143;-69
2021/10/10 10:44:40;;;;;;;15.43;8.23;;;30.10;63.90;;;;;;5029928;28;20460;-70
2021/10/10 10:47:08;;;;;;;12.35;7.93;;;30.20;65.50;;;;;;5028186;28;20076;-70
2021/10/10 10:49:59;;;;;;;15.63;7.95;;;30.60;65.10;;;;;;5032143;28;20162;-70
2021/10/10 10:52:28;;;;;;;16.42;8.43;;;30.10;64.30;;;;;;5036292;28;20049;-71
2021/10/10 10:54:58;;;;;;;13.10;7.53;;;28.40;62.90;;;;;;5034573;28;20563;-69
2021/10/10 10:57:33;;;;;;;15.73;8.43;;;30.00;63.10;;;;;;5031556;28;20126;-71
2021/10/10 11:00:06;;;;;;;11.75;7.70;;;30.30;63.50;;;;;;5033896;28;20045;-71
2021/10/10 11:02:54;;;;;;;13.00;8.38;;;32.20;62.80;;;;;;5033915;28;20045;-71
2021/10/10 11:05:46;;;;;;;14.55;8.85;;;29.50;59.80;;;;;;5033116;28;20497;-70
2021/10/10 11:08:33;;;;;;;17.40;7.65;;;29.90;63.10;;;;;;5032725;28;20049;-70
2021/10/10 11:11:15;;;;;;;14.80;7.93;;;29.50;61.90;;;;;;5033058;28;20049;-70
2021/10/10 11:13:44;;;;;;;16.30;8.02;;;28.70;62.60;;;;;;5033516;28;20137;-70
2021/10/10 11:16:12;;;;;;;13.35;8.10;;;31.90;60.50;;;;;;5030920;28;20076;-70
2021/10/10 11:18:45;;;;;;;11.57;6.68;;;31.20;59.10;;;;;;5027669;28;20224;-70
2021/10/10 11:21:14;;;;;;;10.93;7.28;;;31.00;59.90;;;;;;5033039;28;20040;-71
2021/10/10 11:23:42;;;;;;;13.07;7.20;;;31.50;59.30;;;;;;5034641;28;20071;-70
2021/10/10 11:26:13;;;;;;;12.88;7.22;;;29.70;57.60;;;;;;5029245;28;20150;-71
2021/10/10 11:28:44;;;;;;;12.95;7.22;;;29.50;59.40;;;;;;5028732;28;20049;-71
2021/10/10 11:31:13;;;;;;;12.85;6.72;;;30.90;59.20;;;;;;5031519;28;20052;-71
2021/10/10 11:33:42;;;;;;;14.48;8.15;;;31.20;59.00;;;;;;5033514;28;20127;-71
2021/10/10 11:36:09;;;;;;;11.40;6.90;;;29.60;58.00;;;;;;5034174;28;20386;-71
2021/10/10 11:38:50;;;;;;;12.40;7.18;;;31.00;58.80;;;;;;5033738;28;20076;-71
2021/10/10 11:41:19;;;;;;;11.07;6.38;;;31.50;58.30;;;;;;5034368;28;20071;-70
2021/10/10 11:44:01;;;;;;;12.23;6.95;;;31.90;57.70;;;;;;5032751;28;20508;-70
2021/10/10 11:46:49;;;;;;;14.70;7.07;;;29.20;58.00;;;;;;5032558;28;20045;-70
2021/10/10 11:49:29;;;;;;;13.35;6.78;;;29.40;61.70;;;;;;5032518;28;20098;-70
2021/10/10 11:52:04;;;;;;;13.65;6.22;;;29.80;60.80;;;;;;5031132;28;20080;-71
2021/10/10 11:54:36;;;;;;;12.02;6.93;;;30.10;59.90;;;;;;5032067;28;20146;-70
2021/10/10 11:57:06;;;;;;;11.38;6.80;;;28.80;62.10;;;;;;5031159;28;20045;-70
2021/10/10 11:59:33;;;;;;;13.80;6.47;;;27.70;60.10;;;;;;5031133;28;20053;-70
2021/10/10 12:02:00;;;;;;;10.90;6.40;;;28.70;60.40;;;;;;5032083;28;20730;-70
2021/10/10 12:04:27;;;;;;;11.73;6.70;;;30.00;59.90;;;;;;5032965;28;20098;-70
2021/10/10 12:06:54;;;;;;;13.27;7.15;;;28.40;63.20;;;;;;5032229;28;20064;-70
2021/10/10 12:09:21;;;;;;;16.85;7.32;;;29.50;60.30;;;;;;5038179;28;20421;-70
2021/10/10 12:12:07;;;;;;;13.57;6.00;;;27.50;63.20;;;;;;5035654;28;20067;-70
2021/10/10 12:14:45;;;;;;;11.13;6.80;;;29.60;60.30;;;;;;5034817;28;20416;-71
2021/10/10 12:17:30;;;;;;;11.65;6.55;;;30.10;59.50;;;;;;5034657;28;20158;-70
2021/10/10 12:19:58;;;;;;;11.38;5.90;;;31.00;58.10;;;;;;5034659;28;20083;-70
2021/10/10 12:22:27;;;;;;;11.90;5.63;;;31.30;59.50;;;;;;5035296;28;20426;-70
2021/10/10 12:24:54;;;;;;;14.15;5.38;;;30.20;57.70;;;;;;5036449;28;20052;-71
2021/10/10 12:27:32;;;;;;;11.23;5.75;;;27.30;57.10;;;;;;5033894;28;20048;-71
2021/10/10 12:30:00;;;;;;;10.98;5.55;;;27.90;58.70;;;;;;5034306;28;20498;-71
2021/10/10 12:32:30;;;;;;;11.20;6.03;;;28.00;58.30;;;;;;5034422;28;20133;-71
2021/10/10 12:35:09;;;;;;;10.23;5.63;;;28.50;59.70;;;;;;5035113;28;20510;-71
2021/10/10 12:37:36;;;;;;;8.82;5.30;;;27.00;59.30;;;;;;5034564;28;20088;-71
2021/10/10 12:40:04;;;;;;;8.85;5.68;;;27.50;60.60;;;;;;5035417;28;20405;-71
2021/10/10 12:42:49;;;;;;;11.30;6.32;;;26.20;63.00;;;;;;5033591;28;20112;-70
2021/10/10 12:45:27;;;;;;;10.93;5.45;;;26.40;61.30;;;;;;5033754;28;20048;-70
2021/10/10 12:48:05;;;;;;;10.45;6.32;;;25.90;61.30;;;;;;5035017;28;20048;-71
2021/10/10 12:50:33;;;;;;;12.18;6.55;;;25.00;63.80;;;;;;5033075;28;20049;-71
2021/10/10 12:53:06;;;;;;;12.45;6.07;;;24.40;63.20;;;;;;5036354;28;20095;-71